Terminal Aerodrome Forecast
Issued by NWS

Home | Current Version | Previous Version | Text Only | Print | Product List | Glossary On
Versions: 1 2 3 4 5 6 7 8 9 10 11 12 13
000
FTUS42 KMLB 170500 RRA
TAFFPR
TAF
KFPR 170541Z 1706/1806 07010KT P6SM VCSH SCT030 BKN035 OVC090
      TEMPO 1706/1709 -SHRA BKN025 OVC050
     FM171500 07010G18KT P6SM -SHRA BKN030 BKN050
     FM180000 08009KT P6SM VCSH SCT020 BKN030=

USA.gov is the U.S. government's official web portal to all federal, state and local government web resources and services.